Time;durP1;ratioP1;P1;durP2;ratioP2;P2;SDS_P1;SDS_P2;PMS_P1;PMS_P2;Temp;Humidity;BMP_temperature;BMP_pressure;BME280_temperature;BME280_humidity;BME280_pressure;Samples;Min_cycle;Max_cycle;Signal;HPM_P1;HPM_P2
2024/01/31 00:01:17;;;;;;;35.75;23.75;;;6.60;99.90;;;;;;3107587;28;20026;-85
2024/01/31 00:02:48;;;;;;;37.90;25.60;;;6.60;99.90;;;;;;3112373;28;20038;-85
2024/01/31 00:04:19;;;;;;;36.78;23.85;;;6.60;99.90;;;;;;3098755;28;20032;-85
2024/01/31 00:05:50;;;;;;;30.17;22.85;;;6.60;99.90;;;;;;3117652;28;20067;-85
2024/01/31 00:07:20;;;;;;;30.75;23.27;;;6.60;99.90;;;;;;3098697;28;20030;-86
2024/01/31 00:08:51;;;;;;;39.03;23.70;;;6.60;99.90;;;;;;3107164;28;20541;-85
2024/01/31 00:10:22;;;;;;;30.30;21.38;;;6.60;99.90;;;;;;3106913;28;20022;-85
2024/01/31 00:11:53;;;;;;;30.75;21.65;;;6.60;99.90;;;;;;3107068;28;20026;-86
2024/01/31 00:13:25;;;;;;;29.02;21.23;;;6.60;99.90;;;;;;3094985;28;20069;-86
2024/01/31 00:14:56;;;;;;;37.13;23.42;;;;;;;;;;3102629;28;20471;-89
2024/01/31 00:16:27;;;;;;;34.88;23.40;;;6.60;99.90;;;;;;3095101;28;20030;-85
2024/01/31 00:17:58;;;;;;;30.92;22.33;;;6.60;99.90;;;;;;3102699;28;20026;-89
2024/01/31 00:19:29;;;;;;;34.10;21.33;;;6.60;99.90;;;;;;3111570;28;20022;-85
2024/01/31 00:21:00;;;;;;;43.97;23.98;;;6.60;99.90;;;;;;3098557;28;20030;-86
2024/01/31 00:22:30;;;;;;;35.13;23.45;;;6.60;99.90;;;;;;3107691;28;20030;-85
2024/01/31 00:24:01;;;;;;;30.85;21.52;;;6.60;99.90;;;;;;3111811;28;20080;-85
2024/01/31 00:25:32;;;;;;;32.28;23.85;;;6.60;99.90;;;;;;3085930;28;20030;-85
2024/01/31 00:27:04;;;;;;;33.63;22.15;;;6.60;99.90;;;;;;3078865;28;20448;-86
2024/01/31 00:28:34;;;;;;;32.75;22.08;;;6.60;99.90;;;;;;3083048;28;20027;-85
2024/01/31 00:30:06;;;;;;;35.75;22.83;;;6.60;99.90;;;;;;3078511;28;20034;-86
2024/01/31 00:31:37;;;;;;;34.20;22.90;;;6.60;99.90;;;;;;3091674;28;20038;-86
2024/01/31 00:33:08;;;;;;;35.63;23.52;;;6.60;99.90;;;;;;3094621;28;20055;-85
2024/01/31 00:34:38;;;;;;;29.85;21.35;;;6.60;99.90;;;;;;3090728;28;20121;-85
2024/01/31 00:36:09;;;;;;;36.60;24.60;;;6.50;99.90;;;;;;3090563;28;20112;-87
2024/01/31 00:37:40;;;;;;;34.38;20.10;;;6.50;99.90;;;;;;3102329;28;20034;-85
2024/01/31 00:39:11;;;;;;;27.33;20.27;;;6.50;99.90;;;;;;3110937;28;20026;-86
2024/01/31 00:40:42;;;;;;;32.78;21.42;;;6.50;99.90;;;;;;3110877;28;20033;-85
2024/01/31 00:42:12;;;;;;;33.72;23.15;;;6.50;99.90;;;;;;3106189;28;20395;-85
2024/01/31 00:43:43;;;;;;;29.25;20.00;;;6.50;99.90;;;;;;3106769;28;20157;-85
2024/01/31 00:45:14;;;;;;;42.78;22.25;;;6.50;99.90;;;;;;3104964;28;20830;-85
2024/01/31 00:46:47;;;;;;;32.35;20.65;;;6.50;99.90;;;;;;3094735;28;20056;-85
2024/01/31 00:48:18;;;;;;;37.58;24.10;;;6.50;99.90;;;;;;3102925;28;20110;-85
2024/01/31 00:49:48;;;;;;;41.53;22.92;;;6.50;99.90;;;;;;3106634;28;20026;-85
2024/01/31 00:51:19;;;;;;;35.17;21.90;;;6.50;99.90;;;;;;3106438;28;20131;-85
2024/01/31 00:52:50;;;;;;;29.25;21.08;;;6.50;99.90;;;;;;3106823;28;20018;-87
2024/01/31 00:54:21;;;;;;;33.22;22.13;;;6.60;99.90;;;;;;3106455;28;20037;-85
2024/01/31 00:55:52;;;;;;;32.30;22.50;;;6.50;99.90;;;;;;3105526;28;20072;-85
2024/01/31 00:57:22;;;;;;;33.45;23.88;;;6.60;99.90;;;;;;3105993;28;20057;-85
2024/01/31 00:58:53;;;;;;;32.65;21.42;;;6.60;99.90;;;;;;3106751;28;20129;-86
2024/01/31 01:00:25;;;;;;;35.13;22.65;;;6.60;99.90;;;;;;3106090;28;20517;-86
2024/01/31 01:01:56;;;;;;;35.15;19.95;;;6.60;99.90;;;;;;3106744;28;20029;-89
2024/01/31 01:03:27;;;;;;;33.25;20.95;;;6.60;99.90;;;;;;3106388;28;20093;-85
2024/01/31 01:04:58;;;;;;;31.30;21.27;;;6.60;99.90;;;;;;3093039;28;20372;-89
2024/01/31 01:06:29;;;;;;;33.45;24.63;;;6.60;99.90;;;;;;3115038;28;20033;-86
2024/01/31 01:08:00;;;;;;;46.58;23.92;;;6.60;99.90;;;;;;3110346;28;20089;-85
2024/01/31 01:09:33;;;;;;;29.25;21.67;;;6.60;99.90;;;;;;3094345;28;20026;-86
2024/01/31 01:11:04;;;;;;;41.53;22.65;;;6.60;99.90;;;;;;3102757;28;20033;-85
2024/01/31 01:12:35;;;;;;;33.30;20.67;;;6.60;99.90;;;;;;3094548;28;20058;-87
2024/01/31 01:14:06;;;;;;;33.42;24.05;;;6.60;99.90;;;;;;3102090;28;20029;-85
2024/01/31 01:15:37;;;;;;;30.00;21.23;;;6.60;99.90;;;;;;3105166;28;20386;-85
2024/01/31 01:17:08;;;;;;;34.10;22.98;;;6.60;99.90;;;;;;3098115;28;20033;-85
2024/01/31 01:18:38;;;;;;;29.00;19.48;;;6.60;99.90;;;;;;3098344;28;20030;-85
2024/01/31 01:20:09;;;;;;;31.58;22.08;;;6.60;99.90;;;;;;3105940;28;20794;-85
2024/01/31 01:21:40;;;;;;;32.40;17.45;;;6.60;99.90;;;;;;3106422;28;20113;-85
2024/01/31 01:23:13;;;;;;;29.33;16.52;;;6.60;99.90;;;;;;3105921;28;20022;-86
2024/01/31 01:24:44;;;;;;;26.27;15.75;;;6.50;99.90;;;;;;3104269;28;20080;-85
2024/01/31 01:26:16;;;;;;;25.02;18.13;;;6.50;99.90;;;;;;3093825;28;20310;-85
2024/01/31 01:27:50;;;;;;;25.58;17.15;;;6.50;99.90;;;;;;3106367;28;20026;-86
2024/01/31 01:29:21;;;;;;;27.88;17.10;;;6.50;99.90;;;;;;3097955;28;20360;-85
2024/01/31 01:30:52;;;;;;;24.27;15.88;;;6.50;99.90;;;;;;3094152;28;20042;-85
2024/01/31 01:32:23;;;;;;;25.42;17.80;;;6.50;99.90;;;;;;3081853;28;20023;-85
2024/01/31 01:33:53;;;;;;;21.50;15.45;;;6.50;99.90;;;;;;3062087;28;20039;-85
2024/01/31 01:35:24;;;;;;;31.23;15.75;;;6.50;99.90;;;;;;3085755;28;20090;-85
2024/01/31 01:36:55;;;;;;;19.80;13.35;;;6.50;99.90;;;;;;3098328;28;20169;-88
2024/01/31 01:38:26;;;;;;;22.92;12.35;;;6.50;99.90;;;;;;3094084;28;20399;-85
2024/01/31 01:39:57;;;;;;;23.48;14.35;;;6.40;99.90;;;;;;3093968;28;20067;-88
2024/01/31 01:41:27;;;;;;;24.60;15.25;;;6.40;99.90;;;;;;3081956;28;20035;-86
2024/01/31 01:42:58;;;;;;;27.15;16.23;;;6.40;99.90;;;;;;3089797;28;20066;-89
2024/01/31 01:44:33;;;;;;;19.48;12.98;;;6.40;99.90;;;;;;3081927;28;20027;-85
2024/01/31 01:46:07;;;;;;;24.45;15.13;;;6.40;99.90;;;;;;3078597;28;20117;-85
2024/01/31 01:47:43;;;;;;;23.15;15.07;;;6.40;99.90;;;;;;3094788;28;20026;-86
2024/01/31 01:49:17;;;;;;;23.60;14.35;;;6.40;99.90;;;;;;3097045;28;20031;-85
2024/01/31 01:50:48;;;;;;;23.08;14.35;;;6.40;99.90;;;;;;3082234;28;20423;-85
2024/01/31 01:52:19;;;;;;;22.95;14.95;;;6.40;99.90;;;;;;3101940;28;20026;-85
2024/01/31 01:53:50;;;;;;;22.33;14.68;;;6.40;99.90;;;;;;3097965;28;20033;-87
2024/01/31 01:55:22;;;;;;;32.53;17.20;;;6.40;99.90;;;;;;3099856;28;20033;-85
2024/01/31 01:56:53;;;;;;;22.15;12.02;;;6.40;99.90;;;;;;3106098;28;20033;-85
2024/01/31 01:58:24;;;;;;;26.23;13.32;;;6.40;99.90;;;;;;3105952;28;20040;-85
2024/01/31 01:59:55;;;;;;;21.67;14.85;;;6.40;99.90;;;;;;3082143;28;20038;-90
2024/01/31 02:01:27;;;;;;;26.92;13.80;;;6.30;99.90;;;;;;3102228;28;20038;-87
2024/01/31 02:03:00;;;;;;;18.45;12.90;;;6.40;99.90;;;;;;3081517;28;20035;-86
2024/01/31 02:04:30;;;;;;;15.43;12.30;;;6.40;99.90;;;;;;3090279;28;20054;-85
2024/01/31 02:06:03;;;;;;;27.92;14.38;;;6.30;99.90;;;;;;3105709;28;20581;-85
2024/01/31 02:07:34;;;;;;;20.48;13.80;;;6.40;99.90;;;;;;3109896;28;20484;-85
2024/01/31 02:09:06;;;;;;;15.30;11.98;;;;;;;;;;3105826;28;20418;-85
2024/01/31 02:10:36;;;;;;;19.67;12.65;;;6.30;99.90;;;;;;3106136;28;20072;-85
2024/01/31 02:12:07;;;;;;;13.93;12.13;;;6.30;99.90;;;;;;3093589;28;20034;-85
2024/01/31 02:13:38;;;;;;;23.00;11.48;;;6.30;99.90;;;;;;3089820;28;20026;-85
2024/01/31 02:15:10;;;;;;;17.35;13.02;;;6.30;99.90;;;;;;3088685;28;20024;-86
2024/01/31 02:16:44;;;;;;;20.38;12.93;;;6.30;99.90;;;;;;3102023;28;20026;-85
2024/01/31 02:18:15;;;;;;;19.02;11.68;;;6.30;99.90;;;;;;3094096;28;20637;-85
2024/01/31 02:19:45;;;;;;;26.10;12.65;;;6.30;99.90;;;;;;3101923;28;20041;-85
2024/01/31 02:21:16;;;;;;;23.13;12.68;;;6.30;99.90;;;;;;3105630;28;20034;-85
2024/01/31 02:22:47;;;;;;;19.63;12.75;;;6.30;99.90;;;;;;3093729;28;20101;-85
2024/01/31 02:24:18;;;;;;;21.98;13.07;;;6.30;99.90;;;;;;3097541;28;20471;-85
2024/01/31 02:25:50;;;;;;;15.70;12.38;;;6.20;99.90;;;;;;3101616;28;20106;-85
2024/01/31 02:27:21;;;;;;;18.90;11.85;;;6.30;99.90;;;;;;3093681;28;20029;-85
2024/01/31 02:28:51;;;;;;;19.80;12.73;;;6.20;99.90;;;;;;3114293;28;20038;-85
2024/01/31 02:30:22;;;;;;;24.20;13.95;;;6.20;99.90;;;;;;3085558;28;20063;-85
2024/01/31 02:31:53;;;;;;;20.02;11.13;;;6.20;99.90;;;;;;3097926;28;20041;-85
2024/01/31 02:33:24;;;;;;;18.80;13.40;;;6.20;99.90;;;;;;3109848;28;20030;-86
2024/01/31 02:34:55;;;;;;;17.25;11.45;;;6.20;99.90;;;;;;3113744;28;20026;-88
2024/01/31 02:36:25;;;;;;;16.70;10.52;;;6.20;99.90;;;;;;3106384;28;20036;-85
2024/01/31 02:37:57;;;;;;;16.67;12.23;;;6.20;99.90;;;;;;3097398;28;20074;-89
2024/01/31 02:39:30;;;;;;;14.15;10.68;;;6.20;99.90;;;;;;3102174;28;20026;-85
2024/01/31 02:41:01;;;;;;;18.45;11.43;;;6.20;99.90;;;;;;3105566;28;20255;-85
2024/01/31 02:42:31;;;;;;;19.38;11.40;;;6.20;99.90;;;;;;3105922;28;20038;-85
2024/01/31 02:44:02;;;;;;;16.92;11.80;;;;;;;;;;3110216;28;20026;-85
2024/01/31 02:45:35;;;;;;;14.70;11.90;;;6.20;99.90;;;;;;3096661;28;20068;-85
2024/01/31 02:47:06;;;;;;;26.27;12.13;;;6.20;99.90;;;;;;3114263;28;20032;-85
2024/01/31 02:48:37;;;;;;;23.00;12.70;;;6.20;99.90;;;;;;3097801;28;20034;-85
2024/01/31 02:50:08;;;;;;;20.92;11.63;;;6.20;99.90;;;;;;3101143;28;20081;-85
2024/01/31 02:51:39;;;;;;;20.88;12.32;;;6.20;99.90;;;;;;3105639;28;20029;-85
2024/01/31 02:53:10;;;;;;;17.58;11.20;;;6.20;99.90;;;;;;3093265;28;20121;-85
2024/01/31 02:54:41;;;;;;;19.65;11.82;;;6.20;99.90;;;;;;3110578;28;20022;-85
2024/01/31 02:56:12;;;;;;;20.73;11.00;;;6.20;99.90;;;;;;3109546;28;20506;-87
2024/01/31 02:57:43;;;;;;;20.58;12.48;;;6.20;99.90;;;;;;3105856;28;20386;-85
2024/01/31 02:59:14;;;;;;;16.80;10.82;;;6.20;99.90;;;;;;3117783;28;20034;-85
2024/01/31 03:00:44;;;;;;;17.02;12.00;;;6.20;99.90;;;;;;3110895;28;20052;-85
2024/01/31 03:02:16;;;;;;;23.65;13.15;;;6.10;99.90;;;;;;3107653;28;20243;-86
2024/01/31 03:03:46;;;;;;;16.40;12.15;;;6.10;99.90;;;;;;3095992;28;20045;-85
2024/01/31 03:05:17;;;;;;;13.23;9.55;;;6.10;99.90;;;;;;3103531;28;20037;-86
2024/01/31 03:06:49;;;;;;;16.25;10.55;;;6.10;99.90;;;;;;3108105;28;20030;-85
2024/01/31 03:08:19;;;;;;;13.35;10.02;;;6.10;99.90;;;;;;3107789;28;20042;-85
2024/01/31 03:09:50;;;;;;;15.45;11.63;;;6.10;99.90;;;;;;3095933;28;20091;-85
2024/01/31 03:11:21;;;;;;;22.02;11.30;;;6.10;99.90;;;;;;3095455;28;20030;-85
2024/01/31 03:12:51;;;;;;;22.20;10.80;;;6.10;99.90;;;;;;3103904;28;20018;-87
2024/01/31 03:14:22;;;;;;;15.30;11.18;;;6.10;99.90;;;;;;3107343;28;20506;-85
2024/01/31 03:15:53;;;;;;;19.50;10.13;;;6.10;99.90;;;;;;3094571;28;20026;-85
2024/01/31 03:17:24;;;;;;;12.63;11.30;;;6.10;99.90;;;;;;3091386;28;20030;-86
2024/01/31 03:18:56;;;;;;;23.40;11.40;;;6.10;99.90;;;;;;3103502;28;20021;-87
2024/01/31 03:20:27;;;;;;;21.92;12.13;;;6.10;99.90;;;;;;3107689;28;20030;-85
2024/01/31 03:21:58;;;;;;;20.58;11.00;;;6.10;99.90;;;;;;3107585;28;20038;-87
2024/01/31 03:23:29;;;;;;;14.82;9.48;;;6.10;99.90;;;;;;3095485;28;20126;-85
2024/01/31 03:25:00;;;;;;;19.02;10.80;;;6.10;99.90;;;;;;3102641;28;20510;-85
2024/01/31 03:26:31;;;;;;;15.75;10.38;;;6.10;99.90;;;;;;3087633;28;20160;-85
2024/01/31 03:28:02;;;;;;;13.98;8.98;;;6.10;99.90;;;;;;3095605;28;20105;-85
2024/01/31 03:29:33;;;;;;;17.85;12.10;;;6.10;99.90;;;;;;3083540;28;20031;-87
2024/01/31 03:31:04;;;;;;;16.40;11.75;;;6.10;99.90;;;;;;3091222;28;20459;-85
2024/01/31 03:32:34;;;;;;;28.15;13.65;;;6.10;99.90;;;;;;3097553;28;20038;-85
2024/01/31 03:34:05;;;;;;;18.50;12.95;;;6.10;99.90;;;;;;3107376;28;20034;-85
2024/01/31 03:35:36;;;;;;;21.70;11.13;;;6.10;99.90;;;;;;3106484;28;20103;-84
2024/01/31 03:37:07;;;;;;;17.45;11.40;;;6.10;99.90;;;;;;3104052;28;20064;-85
2024/01/31 03:38:38;;;;;;;18.73;13.43;;;6.10;99.90;;;;;;3108017;28;20533;-87
2024/01/31 03:40:09;;;;;;;16.63;13.00;;;6.10;99.90;;;;;;3107621;28;20795;-85
2024/01/31 03:41:46;;;;;;;13.95;10.35;;;6.10;99.90;;;;;;3095396;28;20065;-86
2024/01/31 03:43:17;;;;;;;17.27;11.25;;;6.10;99.90;;;;;;3105013;28;20042;-85
2024/01/31 03:44:48;;;;;;;17.83;10.35;;;6.10;99.90;;;;;;3106451;28;20030;-85
2024/01/31 03:46:19;;;;;;;17.00;10.38;;;6.10;99.90;;;;;;3095181;28;20092;-86
2024/01/31 03:47:51;;;;;;;14.85;10.00;;;6.10;99.90;;;;;;3115959;28;20395;-86
2024/01/31 03:49:22;;;;;;;14.60;11.18;;;6.10;99.90;;;;;;3098927;28;20031;-85
2024/01/31 03:50:53;;;;;;;16.45;9.73;;;6.00;99.90;;;;;;3103941;28;20553;-86
2024/01/31 03:52:24;;;;;;;30.60;11.18;;;6.00;99.90;;;;;;3095046;28;20427;-85
2024/01/31 03:53:55;;;;;;;22.48;12.23;;;6.00;99.90;;;;;;3107779;28;20026;-88
2024/01/31 03:55:26;;;;;;;19.23;11.10;;;6.00;99.90;;;;;;3098878;28;20046;-85
2024/01/31 03:56:57;;;;;;;15.77;9.35;;;6.00;99.90;;;;;;3102765;28;20080;-89
2024/01/31 03:58:29;;;;;;;21.48;12.55;;;6.00;99.90;;;;;;3111853;28;20109;-85
2024/01/31 04:00:05;;;;;;;17.73;12.25;;;6.00;99.90;;;;;;3110643;28;20057;-85
2024/01/31 04:01:35;;;;;;;17.08;10.90;;;6.00;99.90;;;;;;3111715;28;20030;-85
2024/01/31 04:03:06;;;;;;;15.25;11.88;;;6.00;99.90;;;;;;3098726;28;20038;-87
2024/01/31 04:04:37;;;;;;;15.25;10.65;;;6.00;99.90;;;;;;3114462;28;20044;-86
2024/01/31 04:06:08;;;;;;;15.60;10.50;;;6.00;99.90;;;;;;3111262;28;20066;-87
2024/01/31 04:07:39;;;;;;;16.65;10.43;;;6.00;99.90;;;;;;3094971;28;20022;-86
2024/01/31 04:09:09;;;;;;;14.73;9.63;;;6.00;99.90;;;;;;3103234;28;20033;-86
2024/01/31 04:10:40;;;;;;;19.42;11.50;;;6.00;99.90;;;;;;3095179;28;20487;-86
2024/01/31 04:12:11;;;;;;;17.05;12.88;;;6.00;99.90;;;;;;3102069;28;20443;-87
2024/01/31 04:13:45;;;;;;;14.98;9.30;;;6.00;99.90;;;;;;3107127;28;20026;-85
2024/01/31 04:15:16;;;;;;;15.15;11.30;;;6.00;99.90;;;;;;3098870;28;20078;-86
2024/01/31 04:16:48;;;;;;;17.08;9.60;;;6.00;99.90;;;;;;3095188;28;20026;-86
2024/01/31 04:18:18;;;;;;;19.60;11.48;;;6.00;99.90;;;;;;3100337;28;20031;-86
2024/01/31 04:19:49;;;;;;;18.92;12.18;;;5.90;99.90;;;;;;3111404;28;20026;-88
2024/01/31 04:21:22;;;;;;;14.75;8.75;;;6.00;99.90;;;;;;3106564;28;20042;-88
2024/01/31 04:22:52;;;;;;;23.50;11.95;;;5.90;99.90;;;;;;3095348;28;20506;-86
2024/01/31 04:24:23;;;;;;;25.92;11.05;;;5.90;99.90;;;;;;3102698;28;20026;-86
2024/01/31 04:25:55;;;;;;;21.58;11.63;;;5.90;99.90;;;;;;3105871;28;20065;-88
2024/01/31 04:27:26;;;;;;;17.50;10.02;;;5.90;99.90;;;;;;3082856;28;20035;-88
2024/01/31 04:28:57;;;;;;;18.30;13.07;;;5.90;99.90;;;;;;3091112;28;20054;-88
2024/01/31 04:30:28;;;;;;;16.60;9.65;;;5.90;99.90;;;;;;3103386;28;20026;-86
2024/01/31 04:31:59;;;;;;;20.88;10.80;;;5.90;99.90;;;;;;3111511;28;20030;-86
2024/01/31 04:33:30;;;;;;;20.83;9.65;;;5.90;99.90;;;;;;3098485;28;20074;-86
2024/01/31 04:35:01;;;;;;;22.23;11.85;;;6.00;99.90;;;;;;3093851;28;20029;-87
2024/01/31 04:36:32;;;;;;;18.90;9.93;;;5.90;99.90;;;;;;3107674;28;20382;-86
2024/01/31 04:38:03;;;;;;;20.33;10.40;;;5.90;99.90;;;;;;3098522;28;20510;-86
2024/01/31 04:39:35;;;;;;;17.02;8.93;;;5.90;99.90;;;;;;3107003;28;20060;-86
2024/01/31 04:41:06;;;;;;;15.43;9.85;;;5.90;99.90;;;;;;3095001;28;20057;-86
2024/01/31 04:42:38;;;;;;;15.73;9.55;;;5.90;99.90;;;;;;3107658;28;20030;-86
2024/01/31 04:44:09;;;;;;;18.90;12.32;;;5.90;99.90;;;;;;3098534;28;20073;-86
2024/01/31 04:45:40;;;;;;;15.10;9.32;;;5.90;99.90;;;;;;3107166;28;20030;-88
2024/01/31 04:47:11;;;;;;;16.90;9.88;;;5.90;99.90;;;;;;3106369;28;20089;-86
2024/01/31 04:48:42;;;;;;;16.30;10.45;;;5.90;99.90;;;;;;3106764;28;20437;-86
2024/01/31 04:50:13;;;;;;;13.13;10.65;;;5.90;99.90;;;;;;3094330;28;20071;-86
2024/01/31 04:51:43;;;;;;;14.98;9.20;;;5.90;99.90;;;;;;3102851;28;20111;-86
2024/01/31 04:53:14;;;;;;;18.10;11.20;;;5.90;99.90;;;;;;3094513;28;20026;-86
2024/01/31 04:54:45;;;;;;;10.63;7.70;;;5.90;99.90;;;;;;3090125;28;20073;-86
2024/01/31 04:56:18;;;;;;;24.80;10.93;;;5.90;99.90;;;;;;3078464;28;20049;-87
2024/01/31 04:57:48;;;;;;;20.60;9.52;;;5.90;99.90;;;;;;3099469;28;20113;-86
2024/01/31 04:59:19;;;;;;;19.23;11.68;;;5.90;99.90;;;;;;3095247;28;20434;-88
2024/01/31 05:00:50;;;;;;;19.02;11.07;;;5.90;99.90;;;;;;3091120;28;20034;-87
2024/01/31 05:02:21;;;;;;;20.63;11.43;;;5.90;99.90;;;;;;3102096;28;20418;-86
2024/01/31 05:03:52;;;;;;;17.40;10.18;;;5.90;99.90;;;;;;3106941;28;20026;-86
2024/01/31 05:05:23;;;;;;;30.25;11.73;;;5.90;99.90;;;;;;3118357;28;20045;-86
2024/01/31 05:06:55;;;;;;;26.25;9.93;;;5.90;99.90;;;;;;3098844;28;20027;-86
2024/01/31 05:08:28;;;;;;;17.60;13.13;;;5.90;99.90;;;;;;3106928;28;20034;-86
2024/01/31 05:09:59;;;;;;;15.02;10.60;;;5.90;99.90;;;;;;3107298;28;20036;-86
2024/01/31 05:11:30;;;;;;;12.85;9.98;;;5.90;99.90;;;;;;3108221;28;20026;-86
2024/01/31 05:13:01;;;;;;;27.98;12.27;;;5.90;99.90;;;;;;3107784;28;20113;-86
2024/01/31 05:14:32;;;;;;;15.70;11.00;;;5.90;99.90;;;;;;3108292;28;20026;-90
2024/01/31 05:16:08;;;;;;;22.48;11.48;;;5.90;99.90;;;;;;3100581;28;20394;-86
2024/01/31 05:17:39;;;;;;;17.25;11.32;;;5.90;99.90;;;;;;3100143;28;20018;-86
2024/01/31 05:19:13;;;;;;;16.90;10.23;;;5.90;99.90;;;;;;3103853;28;20030;-87
2024/01/31 05:20:44;;;;;;;19.48;12.63;;;5.90;99.90;;;;;;3111852;28;20098;-92
2024/01/31 05:22:15;;;;;;;17.17;11.23;;;5.90;99.90;;;;;;3129392;28;20014;-93
2024/01/31 05:23:45;;;;;;;16.08;12.15;;;5.90;99.90;;;;;;3112806;28;20019;-91
2024/01/31 05:25:16;;;;;;;28.23;13.75;;;5.90;99.90;;;;;;3119643;28;20175;-90
2024/01/31 05:26:48;;;;;;;26.02;14.63;;;5.90;99.90;;;;;;3117866;28;20038;-90
2024/01/31 05:28:20;;;;;;;32.47;16.13;;;5.70;99.90;;;;;;3096439;28;20011;-86
2024/01/31 05:29:50;;;;;;;32.28;14.45;;;5.80;99.90;;;;;;3105292;28;20064;-91
2024/01/31 05:31:21;;;;;;;30.48;16.30;;;5.90;99.90;;;;;;3112575;28;20010;-91
2024/01/31 05:32:52;;;;;;;25.10;14.85;;;5.90;99.90;;;;;;3109202;28;20018;-92
2024/01/31 05:34:23;;;;;;;24.85;14.27;;;5.90;99.90;;;;;;3117863;28;20041;-90
2024/01/31 05:35:53;;;;;;;23.92;14.65;;;5.80;99.90;;;;;;3110429;28;20014;-88
2024/01/31 05:37:24;;;;;;;27.15;15.65;;;5.90;99.90;;;;;;3101534;28;20022;-88
2024/01/31 05:38:55;;;;;;;24.08;15.70;;;5.90;99.90;;;;;;3109774;28;20026;-92
2024/01/31 05:40:26;;;;;;;25.05;15.95;;;5.90;99.90;;;;;;3121999;28;20037;-87
2024/01/31 05:41:57;;;;;;;16.92;13.38;;;5.90;99.90;;;;;;3098537;28;20058;-88
2024/01/31 05:43:28;;;;;;;24.25;13.32;;;5.90;99.90;;;;;;3094768;28;20030;-86
2024/01/31 05:44:58;;;;;;;25.45;13.90;;;5.90;99.90;;;;;;3074250;28;20036;-90
2024/01/31 05:46:30;;;;;;;27.15;14.55;;;5.90;99.90;;;;;;3086593;28;20026;-86
2024/01/31 05:48:02;;;;;;;20.15;14.00;;;5.90;99.90;;;;;;3094372;28;20109;-86
2024/01/31 05:49:33;;;;;;;19.77;13.85;;;5.90;99.90;;;;;;3094410;28;20519;-86
2024/01/31 05:51:04;;;;;;;21.23;13.48;;;5.90;99.90;;;;;;3086194;28;20460;-86
2024/01/31 05:52:35;;;;;;;30.00;16.73;;;5.90;99.90;;;;;;3090141;28;20541;-86
2024/01/31 05:54:05;;;;;;;19.35;14.90;;;5.90;99.90;;;;;;3070008;28;20031;-87
2024/01/31 05:55:37;;;;;;;22.42;15.95;;;5.90;99.90;;;;;;3083348;28;20606;-86
2024/01/31 05:57:07;;;;;;;26.45;15.02;;;5.90;99.90;;;;;;3106943;28;20029;-86
2024/01/31 05:58:39;;;;;;;16.63;12.55;;;;;;;;;;3110491;28;20034;-86
2024/01/31 06:00:11;;;;;;;20.77;12.98;;;5.80;99.90;;;;;;3094395;28;20026;-87
2024/01/31 06:01:42;;;;;;;22.83;12.23;;;5.80;99.90;;;;;;3107410;28;20034;-85
2024/01/31 06:03:15;;;;;;;22.25;13.05;;;5.90;99.90;;;;;;3097889;28;20495;-87
2024/01/31 06:04:45;;;;;;;20.65;12.70;;;5.80;99.90;;;;;;3115801;28;20029;-85
2024/01/31 06:06:16;;;;;;;18.23;12.32;;;5.80;99.90;;;;;;3121218;28;20024;-85
2024/01/31 06:07:47;;;;;;;29.67;15.13;;;5.80;99.90;;;;;;3092534;28;20049;-85
2024/01/31 06:09:18;;;;;;;22.50;11.10;;;5.90;99.90;;;;;;3102242;28;20022;-85
2024/01/31 06:10:53;;;;;;;23.05;12.40;;;5.80;99.90;;;;;;3106239;28;20185;-84
2024/01/31 06:12:24;;;;;;;26.20;12.23;;;;;;;;;;3094388;28;20030;-84
2024/01/31 06:13:55;;;;;;;21.65;11.80;;;5.80;99.90;;;;;;3090292;28;20069;-85
2024/01/31 06:15:26;;;;;;;27.73;10.80;;;5.80;99.90;;;;;;3106614;28;20022;-84
2024/01/31 06:16:57;;;;;;;18.65;12.25;;;5.80;99.90;;;;;;3109194;28;20033;-85
2024/01/31 06:18:32;;;;;;;16.88;12.18;;;5.80;99.90;;;;;;3104677;28;20030;-84
2024/01/31 06:20:04;;;;;;;19.10;12.35;;;5.80;99.90;;;;;;3098065;28;20077;-83
2024/01/31 06:21:35;;;;;;;17.63;12.65;;;5.80;99.90;;;;;;3094689;28;20038;-84
2024/01/31 06:23:09;;;;;;;19.08;13.57;;;5.80;99.90;;;;;;3098389;28;20042;-84
2024/01/31 06:24:40;;;;;;;22.50;10.45;;;5.80;99.90;;;;;;3097852;28;20105;-85
2024/01/31 06:26:12;;;;;;;19.48;11.10;;;5.80;99.90;;;;;;3105907;28;20022;-85
2024/01/31 06:27:43;;;;;;;17.05;11.85;;;5.80;99.90;;;;;;3105294;28;20017;-86
2024/01/31 06:29:18;;;;;;;18.67;12.52;;;5.80;99.90;;;;;;3105417;28;20120;-85
2024/01/31 06:30:58;;;;;;;19.05;11.60;;;5.80;99.90;;;;;;3110224;28;20026;-86
2024/01/31 06:32:34;;;;;;;20.73;11.55;;;5.80;99.90;;;;;;3097221;28;20034;-84
2024/01/31 06:34:05;;;;;;;20.10;12.38;;;5.80;99.90;;;;;;3094763;28;20487;-85
2024/01/31 06:35:37;;;;;;;19.80;12.32;;;5.80;99.90;;;;;;3092119;28;20034;-85
2024/01/31 06:37:08;;;;;;;17.55;12.90;;;5.80;99.90;;;;;;3116288;28;20034;-86
2024/01/31 06:38:39;;;;;;;24.17;11.30;;;6.00;99.90;;;;;;3111921;28;20030;-86
2024/01/31 06:40:10;;;;;;;20.35;13.10;;;5.80;99.90;;;;;;3096253;28;20038;-85
2024/01/31 06:41:41;;;;;;;23.30;12.80;;;5.80;99.90;;;;;;3098493;28;20090;-85
2024/01/31 06:43:12;;;;;;;23.30;10.95;;;5.80;99.90;;;;;;3107867;28;20034;-85
2024/01/31 06:44:43;;;;;;;29.80;11.25;;;5.80;99.90;;;;;;3103614;28;20034;-84
2024/01/31 06:46:18;;;;;;;17.15;11.18;;;5.80;99.90;;;;;;3083750;28;20031;-85
2024/01/31 06:47:49;;;;;;;20.52;9.93;;;5.80;99.90;;;;;;3106256;28;20052;-85
2024/01/31 06:49:20;;;;;;;19.25;11.25;;;5.80;99.90;;;;;;3101524;28;20026;-85
2024/01/31 06:50:51;;;;;;;18.33;11.40;;;5.80;99.90;;;;;;3104206;28;20033;-85
2024/01/31 06:52:22;;;;;;;15.52;9.35;;;5.90;99.90;;;;;;3107796;28;20029;-85
2024/01/31 06:53:53;;;;;;;15.40;12.35;;;5.80;99.90;;;;;;3107887;28;20033;-86
2024/01/31 06:55:24;;;;;;;16.10;10.80;;;5.80;99.90;;;;;;3106645;28;20103;-85
2024/01/31 06:56:54;;;;;;;18.88;10.77;;;5.80;99.90;;;;;;3095619;28;20101;-85
2024/01/31 06:58:25;;;;;;;27.67;13.27;;;5.80;99.90;;;;;;3103658;28;20393;-85
2024/01/31 06:59:56;;;;;;;21.42;11.25;;;5.80;99.90;;;;;;3107974;28;20124;-85
2024/01/31 07:01:27;;;;;;;16.35;12.52;;;5.80;99.90;;;;;;3107439;28;20026;-85
2024/01/31 07:02:57;;;;;;;22.80;11.02;;;5.80;99.90;;;;;;3099480;28;20054;-85
2024/01/31 07:04:28;;;;;;;15.25;10.68;;;5.80;99.90;;;;;;3103362;28;20120;-85
2024/01/31 07:06:00;;;;;;;16.45;10.82;;;5.80;99.90;;;;;;3106153;28;20026;-88
2024/01/31 07:07:32;;;;;;;28.77;11.75;;;5.80;99.90;;;;;;3092844;28;20507;-86
2024/01/31 07:09:03;;;;;;;25.48;10.57;;;5.70;99.90;;;;;;3103741;28;20018;-86
2024/01/31 07:10:33;;;;;;;15.65;12.18;;;5.80;99.90;;;;;;3095867;28;20025;-85
2024/01/31 07:12:05;;;;;;;16.20;10.00;;;5.80;99.90;;;;;;3116363;28;20028;-85
2024/01/31 07:13:36;;;;;;;23.58;12.32;;;5.80;99.90;;;;;;3107703;28;20061;-85
2024/01/31 07:15:07;;;;;;;23.65;12.13;;;5.80;99.90;;;;;;3103167;28;20548;-84
2024/01/31 07:16:38;;;;;;;11.98;10.35;;;5.80;99.90;;;;;;3097229;28;20014;-87
2024/01/31 07:18:09;;;;;;;13.38;10.65;;;5.80;99.90;;;;;;3099274;28;20034;-85
2024/01/31 07:19:42;;;;;;;21.85;10.10;;;5.80;99.90;;;;;;3101181;28;20022;-85
2024/01/31 07:21:24;;;;;;;19.70;12.90;;;5.80;99.90;;;;;;3106083;28;20120;-85
2024/01/31 07:22:55;;;;;;;18.77;11.65;;;5.80;99.90;;;;;;3112422;28;20064;-85
2024/01/31 07:24:27;;;;;;;14.35;11.40;;;5.80;99.90;;;;;;3111503;28;20034;-85
2024/01/31 07:25:59;;;;;;;15.75;10.45;;;5.80;99.90;;;;;;3109656;28;20498;-85
2024/01/31 07:27:29;;;;;;;20.98;12.65;;;5.80;99.90;;;;;;3119425;28;20030;-86
2024/01/31 07:29:01;;;;;;;25.75;11.80;;;5.80;99.90;;;;;;3099498;28;20137;-89
2024/01/31 07:30:32;;;;;;;16.30;10.73;;;5.80;99.90;;;;;;3099502;28;20026;-85
2024/01/31 07:32:03;;;;;;;22.10;12.73;;;5.90;99.90;;;;;;3091044;28;20037;-88
2024/01/31 07:33:35;;;;;;;20.33;16.55;;;5.90;99.90;;;;;;3079377;28;20035;-86
2024/01/31 07:35:09;;;;;;;27.98;14.02;;;5.90;99.90;;;;;;3074913;28;20070;-86
2024/01/31 07:36:40;;;;;;;26.15;17.17;;;5.90;99.90;;;;;;3092575;28;20465;-85
2024/01/31 07:38:11;;;;;;;26.58;17.52;;;5.90;99.90;;;;;;3102457;28;20086;-85
2024/01/31 07:39:42;;;;;;;21.52;15.23;;;5.90;99.90;;;;;;3107401;28;20037;-84
2024/01/31 07:41:13;;;;;;;25.58;19.65;;;5.90;99.90;;;;;;3102228;28;20497;-85
2024/01/31 07:42:44;;;;;;;26.85;18.90;;;5.90;99.90;;;;;;3109822;28;20037;-84
2024/01/31 07:44:15;;;;;;;30.55;20.75;;;5.90;99.90;;;;;;3099009;28;20113;-85
2024/01/31 07:45:47;;;;;;;31.00;21.05;;;5.90;99.90;;;;;;3106069;28;20030;-84
2024/01/31 07:47:17;;;;;;;34.55;17.90;;;5.90;99.90;;;;;;3088569;28;20559;-86
2024/01/31 07:48:48;;;;;;;28.10;17.35;;;5.90;99.90;;;;;;3090919;28;20142;-85
2024/01/31 07:50:19;;;;;;;26.45;18.83;;;6.00;99.90;;;;;;3094920;28;20040;-85